Time;durP1;ratioP1;P1;durP2;ratioP2;P2;SDS_P1;SDS_P2;PMS_P1;PMS_P2;Temp;Humidity;BMP_temperature;BMP_pressure;BME280_temperature;BME280_humidity;BME280_pressure;Samples;Min_cycle;Max_cycle;Signal;HPM_P1;HPM_P2
2024/03/04 00:00:16;;;;;;;19.88;10.85;;;;;;;;;;4928462;29;20063;-92
2024/03/04 00:02:43;;;;;;;17.08;10.02;;;;;;;;;;4921340;29;20034;-93
2024/03/04 00:05:10;;;;;;;18.08;11.00;;;;;;;;;;4921788;29;20019;-93
2024/03/04 00:07:36;;;;;;;15.65;10.10;;;;;;;;;;4921797;29;20032;-95
2024/03/04 00:10:03;;;;;;;21.88;11.80;;;;;;;;;;4921221;29;20035;-93
2024/03/04 00:12:29;;;;;;;21.67;12.27;;;;;;;;;;4922257;29;20114;-94
2024/03/04 00:14:55;;;;;;;19.88;11.10;;;;;;;;;;4923874;29;20129;-95
2024/03/04 00:17:23;;;;;;;20.42;10.00;;;;;;;;;;4923373;29;20115;-92
2024/03/04 00:19:50;;;;;;;17.65;12.23;;;;;;;;;;4923985;29;20063;-93
2024/03/04 00:22:17;;;;;;;17.98;10.65;;;;;;;;;;4902993;29;20119;-93
2024/03/04 00:24:44;;;;;;;19.40;11.38;;;;;;;;;;4902628;29;20059;-91
2024/03/04 00:27:11;;;;;;;25.48;14.38;;;;;;;;;;4898998;29;20039;-92
2024/03/04 00:29:37;;;;;;;38.13;19.50;;;;;;;;;;4908359;29;20044;-92
2024/03/04 00:32:07;;;;;;;39.15;19.55;;;;;;;;;;4937874;29;20031;-95
2024/03/04 00:34:33;;;;;;;47.08;24.48;;;;;;;;;;4930328;29;20038;-92
2024/03/04 00:37:00;;;;;;;34.47;17.48;;;;;;;;;;4922885;29;20024;-92
2024/03/04 00:39:26;;;;;;;31.02;16.52;;;;;;;;;;4926411;29;20031;-94
2024/03/04 00:41:53;;;;;;;26.30;15.00;;;;;;;;;;4925213;29;20024;-92
2024/03/04 00:47:37;;;;;;;18.60;12.38;;;;;;;;;;4906372;29;20046;-94
2024/03/04 00:50:06;;;;;;;12.93;9.23;;;;;;;;;;4938009;29;20043;-93
2024/03/04 00:52:32;;;;;;;15.50;9.73;;;;;;;;;;4924957;29;20441;-93
2024/03/04 00:54:59;;;;;;;15.02;9.02;;;;;;;;;;4925923;29;20056;-94
2024/03/04 00:57:25;;;;;;;13.80;8.82;;;;;;;;;;4925732;29;20023;-92
2024/03/04 00:59:52;;;;;;;16.15;9.07;;;;;;;;;;4928810;29;20143;-95
2024/03/04 01:02:18;;;;;;;16.77;9.00;;;;;;;;;;4941176;29;20028;-93
2024/03/04 01:04:45;;;;;;;18.13;9.50;;;;;;;;;;4942332;29;20526;-93
2024/03/04 01:07:12;;;;;;;19.60;11.02;;;;;;;;;;4941755;29;20027;-95
2024/03/04 01:09:38;;;;;;;19.58;10.93;;;;;;;;;;4940994;29;20039;-92
2024/03/04 01:12:06;;;;;;;21.85;11.85;;;;;;;;;;4941336;29;20024;-95
2024/03/04 01:14:32;;;;;;;21.95;11.95;;;;;;;;;;4941753;29;20489;-92
2024/03/04 01:16:59;;;;;;;22.45;11.27;;;;;;;;;;4928622;29;20099;-92
2024/03/04 01:19:26;;;;;;;26.52;12.40;;;;;;;;;;4932152;29;20031;-92
2024/03/04 01:21:52;;;;;;;19.42;10.40;;;;;;;;;;4946905;28;20048;-94
2024/03/04 01:24:18;;;;;;;21.08;11.05;;;;;;;;;;4944821;29;20012;-92
2024/03/04 01:26:45;;;;;;;22.92;12.13;;;;;;;;;;4926036;29;20039;-93
2024/03/04 01:29:11;;;;;;;24.48;12.27;;;;;;;;;;4939477;29;20042;-93
2024/03/04 01:31:37;;;;;;;17.30;9.50;;;;;;;;;;4941492;29;20012;-92
2024/03/04 01:34:04;;;;;;;19.42;10.55;;;;;;;;;;4927383;29;20063;-95
2024/03/04 01:36:30;;;;;;;16.33;9.93;;;;;;;;;;4926244;29;20119;-93
2024/03/04 01:38:57;;;;;;;15.63;9.68;;;;;;;;;;4925923;29;20031;-92
2024/03/04 01:41:23;;;;;;;14.15;8.20;;;;;;;;;;4926240;29;20117;-93
2024/03/04 01:43:52;;;;;;;13.27;9.32;;;;;;;;;;4926770;29;20032;-95
2024/03/04 01:46:19;;;;;;;20.60;10.13;;;;;;;;;;4927004;29;20042;-92
2024/03/04 01:48:45;;;;;;;15.23;9.80;;;;;;;;;;4940836;29;20071;-93
2024/03/04 01:51:12;;;;;;;17.65;9.93;;;;;;;;;;4943137;29;20024;-91
2024/03/04 01:53:38;;;;;;;18.63;9.85;;;;;;;;;;4941049;29;20393;-95
2024/03/04 01:56:05;;;;;;;21.00;9.95;;;;;;;;;;4925934;29;20051;-94
2024/03/04 01:58:33;;;;;;;16.08;9.10;;;;;;;;;;4925152;29;20384;-92
2024/03/04 02:01:00;;;;;;;19.40;9.40;;;;;;;;;;4924827;29;20091;-93
2024/03/04 02:03:29;;;;;;;29.85;15.70;;;;;;;;;;4923129;29;20496;-92
2024/03/04 02:05:55;;;;;;;46.03;25.17;;;;;;;;;;4933883;29;20032;-93
2024/03/04 02:08:22;;;;;;;40.70;24.88;;;;;;;;;;4923792;29;20032;-92
2024/03/04 02:10:51;;;;;;;35.40;19.95;;;;;;;;;;4908762;29;20042;-94
2024/03/04 02:13:21;;;;;;;31.92;18.75;;;;;;;;;;4925277;29;20052;-93
2024/03/04 02:15:48;;;;;;;37.10;18.63;;;;;;;;;;4927703;29;20039;-95
2024/03/04 02:18:20;;;;;;;32.58;17.40;;;;;;;;;;4942173;29;20488;-92
2024/03/04 02:20:49;;;;;;;41.70;20.42;;;;;;;;;;4927367;29;20053;-95
2024/03/04 02:23:15;;;;;;;42.08;20.33;;;;;;;;;;4925563;29;20114;-92
2024/03/04 02:25:54;;;;;;;35.67;18.73;;;;;;;;;;4924402;29;20038;-93
2024/03/04 02:28:22;;;;;;;32.47;19.05;;;;;;;;;;4926056;29;20130;-95
2024/03/04 02:30:48;;;;;;;33.55;18.17;;;;;;;;;;4927699;29;20114;-93
2024/03/04 02:33:16;;;;;;;21.98;14.75;;;;;;;;;;4927091;29;20035;-93
2024/03/04 02:35:46;;;;;;;11.45;7.43;;;;;;;;;;4924043;29;20397;-96
2024/03/04 02:38:13;;;;;;;16.48;9.73;;;;;;;;;;4945554;28;20103;-94
2024/03/04 02:40:40;;;;;;;15.20;9.45;;;;;;;;;;4952618;29;20056;-92
2024/03/04 02:43:06;;;;;;;20.52;12.27;;;;;;;;;;4946489;29;20066;-95
2024/03/04 02:45:34;;;;;;;20.58;10.45;;;;;;;;;;4944770;29;20065;-95
2024/03/04 02:48:00;;;;;;;12.57;8.25;;;;;;;;;;4940438;29;20032;-94
2024/03/04 02:50:27;;;;;;;15.38;8.57;;;;;;;;;;4940500;29;20485;-94
2024/03/04 02:52:54;;;;;;;18.33;10.73;;;;;;;;;;4928276;29;20023;-94
2024/03/04 02:55:20;;;;;;;15.43;10.38;;;;;;;;;;4926167;29;20051;-94
2024/03/04 02:57:46;;;;;;;21.65;9.57;;;;;;;;;;4924201;29;20035;-95
2024/03/04 03:00:13;;;;;;;17.27;8.48;;;;;;;;;;4938436;29;20031;-93
2024/03/04 03:02:39;;;;;;;19.42;9.65;;;;;;;;;;4945437;28;20023;-94
2024/03/04 03:05:05;;;;;;;17.73;10.13;;;;;;;;;;4932953;29;20032;-93
2024/03/04 03:07:32;;;;;;;14.45;8.15;;;;;;;;;;4929291;29;20035;-93
2024/03/04 03:09:58;;;;;;;18.52;9.60;;;;;;;;;;4943095;29;20040;-95
2024/03/04 03:12:25;;;;;;;16.60;9.18;;;;;;;;;;4942401;29;20030;-92
2024/03/04 03:14:52;;;;;;;20.75;9.27;;;;;;;;;;4942049;29;20122;-94
2024/03/04 03:17:20;;;;;;;17.95;8.50;;;;;;;;;;4940584;29;20058;-93
2024/03/04 03:19:46;;;;;;;18.10;9.80;;;;;;;;;;4940887;29;20031;-92
2024/03/04 03:22:12;;;;;;;17.95;9.88;;;;;;;;;;4940408;29;20023;-94
2024/03/04 03:24:42;;;;;;;16.85;9.70;;;;;;;;;;4938427;29;20397;-92
2024/03/04 03:27:10;;;;;;;15.23;8.40;;;;;;;;;;4937369;29;20114;-95
2024/03/04 03:29:36;;;;;;;13.18;8.05;;;;;;;;;;4937219;29;20036;-93
2024/03/04 03:32:03;;;;;;;14.82;8.85;;;;;;;;;;4937251;29;20055;-93
2024/03/04 03:34:29;;;;;;;14.35;9.35;;;;;;;;;;4929623;29;20039;-93
2024/03/04 03:36:55;;;;;;;13.63;9.25;;;;;;;;;;4923345;29;20023;-93
2024/03/04 03:39:21;;;;;;;18.98;10.18;;;;;;;;;;4924633;29;20030;-93
2024/03/04 03:41:48;;;;;;;16.90;8.85;;;;;;;;;;4926714;29;20033;-92
2024/03/04 03:44:14;;;;;;;16.30;9.38;;;;;;;;;;4925842;29;20088;-94
2024/03/04 03:46:41;;;;;;;16.45;9.88;;;;;;;;;;4925877;29;20028;-94
2024/03/04 03:49:07;;;;;;;15.98;10.40;;;;;;;;;;4942300;29;20043;-93
2024/03/04 03:51:34;;;;;;;14.55;9.07;;;;;;;;;;4942146;29;20035;-93
2024/03/04 03:54:00;;;;;;;13.65;8.68;;;;;;;;;;4941234;29;20036;-93
2024/03/04 03:56:26;;;;;;;13.80;7.88;;;;;;;;;;4924624;29;20511;-92
2024/03/04 03:58:57;;;;;;;16.20;8.93;;;;;;;;;;4941291;29;20031;-94
2024/03/04 04:01:23;;;;;;;20.15;9.82;;;;;;;;;;4942538;29;20055;-93
2024/03/04 04:03:51;;;;;;;14.45;9.40;;;;;;;;;;4925370;29;20501;-93
2024/03/04 04:06:17;;;;;;;15.95;8.90;;;;;;;;;;4926016;29;20106;-95
2024/03/04 04:08:44;;;;;;;24.38;10.73;;;;;;;;;;4927850;29;20040;-91
2024/03/04 04:11:10;;;;;;;18.83;9.57;;;;;;;;;;4941226;29;20126;-94
2024/03/04 04:13:36;;;;;;;19.40;9.95;;;;;;;;;;4924679;29;20024;-91
2024/03/04 04:16:02;;;;;;;20.58;10.65;;;;;;;;;;4941345;29;20032;-94
2024/03/04 04:18:29;;;;;;;17.02;7.95;;;;;;;;;;4925316;29;20511;-95
2024/03/04 04:20:55;;;;;;;16.30;9.32;;;;;;;;;;4941049;29;20087;-92
2024/03/04 04:23:22;;;;;;;19.02;9.80;;;;;;;;;;4924818;29;20040;-94
2024/03/04 04:26:14;;;;;;;13.20;8.82;;;;;;;;;;4940472;29;20123;-92
2024/03/04 04:28:42;;;;;;;16.55;10.15;;;;;;;;;;4927476;29;20085;-94
2024/03/04 04:31:19;;;;;;;18.88;10.52;;;;;;;;;;4930667;29;20027;-94
2024/03/04 04:33:45;;;;;;;17.90;10.50;;;;;;;;;;4940670;29;20020;-93
2024/03/04 04:36:12;;;;;;;21.90;11.48;;;;;;;;;;4943561;29;20023;-91
2024/03/04 04:38:38;;;;;;;23.35;12.10;;;;;;;;;;4935246;29;20040;-91
2024/03/04 04:41:04;;;;;;;19.63;11.88;;;;;;;;;;4945704;29;20028;-91
2024/03/04 04:43:33;;;;;;;19.63;11.13;;;;;;;;;;4948748;29;20409;-92
2024/03/04 04:46:00;;;;;;;19.52;10.10;;;;;;;;;;4941160;29;20028;-92
2024/03/04 04:48:27;;;;;;;23.08;11.35;;;;;;;;;;4929392;29;20401;-92
2024/03/04 04:50:56;;;;;;;21.52;11.65;;;;;;;;;;4935854;29;20027;-93
2024/03/04 04:53:24;;;;;;;20.33;10.68;;;;;;;;;;4926937;29;20028;-91
2024/03/04 04:55:50;;;;;;;19.98;11.23;;;;;;;;;;4938524;29;20084;-93
2024/03/04 04:58:19;;;;;;;19.27;11.30;;;;;;;;;;4945284;29;20043;-92
2024/03/04 05:00:46;;;;;;;14.02;9.48;;;;;;;;;;4942340;29;20481;-94
2024/03/04 05:03:12;;;;;;;18.27;11.15;;;;;;;;;;4947189;29;20032;-92
2024/03/04 05:05:39;;;;;;;19.95;12.25;;;;;;;;;;4943488;29;20029;-94
2024/03/04 05:08:08;;;;;;;26.65;13.52;;;;;;;;;;4927871;29;20028;-95
2024/03/04 05:10:39;;;;;;;23.75;13.32;;;;;;;;;;4942213;29;20032;-92
2024/03/04 05:13:05;;;;;;;28.42;14.05;;;;;;;;;;4942991;29;20115;-94
2024/03/04 05:15:32;;;;;;;18.25;11.95;;;;;;;;;;4942567;29;20393;-92
2024/03/04 05:17:58;;;;;;;19.83;11.90;;;;;;;;;;4942407;29;20095;-92
2024/03/04 05:20:24;;;;;;;24.77;13.63;;;;;;;;;;4941707;29;20034;-91
2024/03/04 05:22:52;;;;;;;23.98;13.77;;;;;;;;;;4942591;29;20063;-96
2024/03/04 05:25:18;;;;;;;28.35;14.48;;;;;;;;;;4928205;29;20035;-92
2024/03/04 05:27:44;;;;;;;24.38;13.15;;;;;;;;;;4926479;29;20567;-93
2024/03/04 05:30:11;;;;;;;24.35;13.48;;;;;;;;;;4943857;29;20059;-94
2024/03/04 05:32:37;;;;;;;28.30;13.70;;;;;;;;;;4942830;29;20072;-92
2024/03/04 05:35:07;;;;;;;24.90;13.93;;;;;;;;;;4925764;29;20042;-95
2024/03/04 05:37:33;;;;;;;26.90;14.05;;;;;;;;;;4926830;29;20027;-92
2024/03/04 05:39:59;;;;;;;29.27;14.95;;;;;;;;;;4942068;29;20028;-92
2024/03/04 05:42:26;;;;;;;27.40;15.98;;;;;;;;;;4943961;29;20083;-93
2024/03/04 05:44:52;;;;;;;30.90;16.52;;;;;;;;;;4944903;29;20473;-92
2024/03/04 05:47:18;;;;;;;23.25;14.75;;;;;;;;;;4944680;29;20027;-95
2024/03/04 05:49:45;;;;;;;20.80;14.85;;;;;;;;;;4947062;29;20044;-94
2024/03/04 05:52:11;;;;;;;27.98;14.48;;;;;;;;;;4944289;29;20023;-92
2024/03/04 05:54:37;;;;;;;24.33;14.18;;;;;;;;;;4950691;28;20059;-94
2024/03/04 05:57:04;;;;;;;25.95;14.40;;;;;;;;;;4947425;29;20031;-93
2024/03/04 05:59:30;;;;;;;31.45;14.18;;;;;;;;;;4946968;29;20036;-93
2024/03/04 06:01:56;;;;;;;24.27;13.80;;;;;;;;;;4944863;29;20030;-95
2024/03/04 06:04:24;;;;;;;24.63;12.85;;;;;;;;;;4945153;29;20038;-95
2024/03/04 06:06:50;;;;;;;22.23;11.95;;;;;;;;;;4937084;28;20091;-94
2024/03/04 06:09:16;;;;;;;20.73;10.20;;;;;;;;;;4959292;29;20106;-96
2024/03/04 06:11:47;;;;;;;14.88;11.95;;;;;;;;;;4947106;29;20031;-96
2024/03/04 06:14:18;;;;;;;19.60;16.30;;;;;;;;;;4943514;29;20047;-95
2024/03/04 06:17:00;;;;;;;35.80;32.35;;;;;;;;;;4931062;29;20015;-96
2024/03/04 06:19:30;;;;;;;20.25;14.18;;;;;;;;;;4978146;28;20039;-95
2024/03/04 06:21:56;;;;;;;15.60;12.88;;;;;;;;;;4955212;29;20031;-95
2024/03/04 06:24:22;;;;;;;21.58;19.50;;;;;;;;;;4937398;29;20079;-95
2024/03/04 06:26:50;;;;;;;19.08;17.08;;;;;;;;;;4924623;29;20032;-94
2024/03/04 06:29:21;;;;;;;23.65;21.38;;;;;;;;;;4925661;29;20067;-95
2024/03/04 06:31:49;;;;;;;31.05;28.50;;;;;;;;;;4925702;29;20123;-95
2024/03/04 06:34:19;;;;;;;27.88;25.27;;;;;;;;;;4926944;29;20047;-91
2024/03/04 06:36:45;;;;;;;28.33;25.90;;;;;;;;;;4929225;29;20036;-93
2024/03/04 06:39:20;;;;;;;34.80;31.67;;;;;;;;;;4924615;29;20486;-94
2024/03/04 06:41:52;;;;;;;28.55;25.88;;;;;;;;;;4941208;29;20076;-92
2024/03/04 06:44:18;;;;;;;34.40;31.40;;;;;;;;;;4929689;29;20036;-94
2024/03/04 06:46:45;;;;;;;26.30;23.27;;;;;;;;;;4930557;29;20019;-95
2024/03/04 06:49:11;;;;;;;24.08;21.88;;;;;;;;;;4941491;29;20039;-93
2024/03/04 06:51:41;;;;;;;24.27;22.10;;;;;;;;;;4943273;29;20035;-95
2024/03/04 06:54:10;;;;;;;29.55;26.75;;;;;;;;;;4942893;29;20078;-94
2024/03/04 06:56:36;;;;;;;25.30;22.77;;;;;;;;;;4943380;29;20090;-96
2024/03/04 06:59:02;;;;;;;22.70;20.58;;;;;;;;;;4943268;29;20527;-95
2024/03/04 07:01:29;;;;;;;20.90;18.45;;;;;;;;;;4941350;29;20032;-95
2024/03/04 07:03:58;;;;;;;19.83;17.88;;;;;;;;;;4924900;29;20457;-93
2024/03/04 07:06:25;;;;;;;21.35;17.35;;;;;;;;;;4924506;29;20455;-95
2024/03/04 07:08:54;;;;;;;17.92;13.55;;;;;;;;;;4923460;29;20374;-95
2024/03/04 07:11:20;;;;;;;15.98;14.27;;;;;;;;;;4922372;29;20028;-94
2024/03/04 07:13:46;;;;;;;18.60;15.88;;;;;;;;;;4922556;29;20020;-94
2024/03/04 07:16:15;;;;;;;16.75;14.13;;;;;;;;;;4923474;29;20658;-93
2024/03/04 07:18:41;;;;;;;17.80;14.27;;;;;;;;;;4923173;29;20031;-95
2024/03/04 07:21:07;;;;;;;13.65;12.25;;;;;;;;;;4924634;29;20027;-95
2024/03/04 07:23:41;;;;;;;11.73;10.60;;;;;;;;;;4925030;29;20059;-96
2024/03/04 07:26:12;;;;;;;10.90;9.75;;;;;;;;;;4944442;29;20031;-96
2024/03/04 07:28:41;;;;;;;9.88;7.75;;;;;;;;;;4947020;29;20035;-96
2024/03/04 07:31:08;;;;;;;10.48;8.50;;;;;;;;;;4936369;29;20039;-95
2024/03/04 07:33:37;;;;;;;10.68;7.88;;;;;;;;;;4942140;29;20503;-96
2024/03/04 07:36:07;;;;;;;11.38;8.55;;;;;;;;;;4914233;29;20043;-95
2024/03/04 07:38:33;;;;;;;9.25;8.00;;;;;;;;;;4929675;29;20032;-95
2024/03/04 07:41:00;;;;;;;9.63;8.35;;;;;;;;;;4942746;29;20035;-95
2024/03/04 07:43:26;;;;;;;12.52;7.90;;;;;;;;;;4957988;29;20027;-95
2024/03/04 07:45:52;;;;;;;8.45;7.38;;;;;;;;;;4947046;29;20035;-96
2024/03/04 07:48:19;;;;;;;10.23;8.43;;;;;;;;;;4943502;29;20063;-93
2024/03/04 07:50:45;;;;;;;11.35;8.23;;;;;;;;;;4930861;29;20084;-96
2024/03/04 07:53:11;;;;;;;10.15;8.02;;;;;;;;;;4935257;29;20033;-94
2024/03/04 07:55:38;;;;;;;8.77;7.88;;;;;;;;;;4940322;29;20051;-94
2024/03/04 07:58:05;;;;;;;9.73;7.50;;;;;;;;;;4960729;29;20023;-94
2024/03/04 08:00:31;;;;;;;8.38;7.13;;;;;;;;;;4919809;29;20032;-94
2024/03/04 08:02:57;;;;;;;8.75;7.63;;;;;;;;;;4924894;29;20030;-95
2024/03/04 08:05:25;;;;;;;9.93;8.52;;;;;;;;;;4924611;29;20055;-96
2024/03/04 08:07:51;;;;;;;10.40;8.00;;;;;;;;;;4925338;29;20059;-95
2024/03/04 08:10:18;;;;;;;8.50;7.38;;;;;;;;;;4923422;29;20107;-94
2024/03/04 08:12:45;;;;;;;10.75;8.10;;;;;;;;;;4942049;29;20028;-95
2024/03/04 08:15:14;;;;;;;7.53;6.82;;;;;;;;;;4940113;29;20036;-93
2024/03/04 08:17:40;;;;;;;8.05;6.75;;;;;;;;;;4941886;29;20083;-94
2024/03/04 08:20:10;;;;;;;8.73;6.97;;;;;;;;;;4926441;29;20064;-96
2024/03/04 08:22:37;;;;;;;8.95;7.32;;;;;;;;;;4926541;29;20508;-96
2024/03/04 08:25:13;;;;;;;9.40;7.22;;;;;;;;;;4929064;29;20090;-93
2024/03/04 08:27:39;;;;;;;9.93;8.20;;;;;;;;;;4930170;29;20562;-95
2024/03/04 08:30:09;;;;;;;9.45;7.15;;;;;;;;;;4944173;29;20036;-93
2024/03/04 08:32:36;;;;;;;8.50;6.03;;;;;;;;;;4929491;29;20044;-94
2024/03/04 08:35:03;;;;;;;10.77;6.68;;;;;;;;;;4928018;29;20035;-93
2024/03/04 08:37:32;;;;;;;9.05;6.22;;;;;;;;;;4944717;29;20106;-94
2024/03/04 08:40:03;;;;;;;9.68;6.55;;;;;;;;;;4938436;29;20036;-93
2024/03/04 08:42:31;;;;;;;9.07;6.45;;;;;;;;;;4924233;29;20028;-95
2024/03/04 08:45:06;;;;;;;7.60;6.10;;;;;;;;;;4909739;29;20036;-94
2024/03/04 08:47:35;;;;;;;10.13;6.50;;;;;;;;;;4923093;29;20477;-94
2024/03/04 08:50:05;;;;;;;6.85;5.60;;;;;;;;;;4908220;29;20127;-94
2024/03/04 08:52:32;;;;;;;8.38;5.70;;;;;;;;;;4922274;29;20027;-94
2024/03/04 08:54:58;;;;;;;9.70;6.00;;;;;;;;;;4925647;29;20043;-95
2024/03/04 08:57:24;;;;;;;6.32;5.65;;;;;;;;;;4932989;29;20070;-94
2024/03/04 08:59:51;;;;;;;6.38;4.75;;;;;;;;;;4940531;29;20047;-94
2024/03/04 09:02:20;;;;;;;7.38;5.30;;;;;;;;;;4938179;29;20055;-94
2024/03/04 09:04:49;;;;;;;7.30;5.47;;;;;;;;;;4929498;29;20036;-94
2024/03/04 09:07:16;;;;;;;7.60;5.75;;;;;;;;;;4922915;29;20020;-93
2024/03/04 09:09:50;;;;;;;7.35;5.28;;;;;;;;;;4921951;29;20070;-93
2024/03/04 09:12:16;;;;;;;7.88;5.00;;;;;;;;;;4922840;29;20079;-95
2024/03/04 09:14:43;;;;;;;6.43;4.95;;;;;;;;;;4928183;29;20066;-94
2024/03/04 09:17:09;;;;;;;7.00;5.05;;;;;;;;;;4960859;29;20067;-93
2024/03/04 09:19:40;;;;;;;7.68;5.03;;;;;;;;;;4932260;29;20480;-94
2024/03/04 09:22:09;;;;;;;6.80;4.85;;;;;;;;;;4928123;29;20035;-93
2024/03/04 09:24:38;;;;;;;6.95;5.13;;;;;;;;;;4930869;29;20028;-93
2024/03/04 09:27:06;;;;;;;9.50;5.30;;;;;;;;;;4927181;29;20024;-94
2024/03/04 09:29:32;;;;;;;6.60;4.60;;;;;;;;;;4941077;29;20047;-93
2024/03/04 09:32:01;;;;;;;8.15;4.70;;;;;;;;;;4928004;29;20035;-94
2024/03/04 09:34:27;;;;;;;5.45;3.88;;;;;;;;;;4943194;29;20035;-95
2024/03/04 09:36:54;;;;;;;7.63;4.60;;;;;;;;;;4950390;29;20028;-92
2024/03/04 09:39:22;;;;;;;5.93;4.30;;;;;;;;;;4946588;29;20027;-93
2024/03/04 09:41:49;;;;;;;6.35;4.68;;;;;;;;;;4944912;29;20035;-93
2024/03/04 09:44:15;;;;;;;8.45;6.10;;;;;;;;;;4925338;29;20054;-94
2024/03/04 09:46:45;;;;;;;5.22;4.57;;;;;;;;;;4930764;29;20028;-93
2024/03/04 09:49:14;;;;;;;7.63;4.93;;;;;;;;;;4925586;29;20035;-93
2024/03/04 09:51:41;;;;;;;6.15;4.95;;;;;;;;;;4924110;29;20044;-93
2024/03/04 09:54:18;;;;;;;6.18;4.05;;;;;;;;;;4926600;29;20023;-94
2024/03/04 09:56:50;;;;;;;9.07;5.00;;;;;;;;;;4924702;29;20051;-95
2024/03/04 09:59:17;;;;;;;8.43;4.15;;;;;;;;;;4927223;29;20042;-92
2024/03/04 10:01:44;;;;;;;8.25;4.60;;;;;;;;;;4925910;29;20049;-93
2024/03/04 10:04:17;;;;;;;8.10;4.57;;;;;;;;;;4926087;29;20031;-94
2024/03/04 10:06:43;;;;;;;8.02;5.00;;;;;;;;;;4927306;29;20043;-94
2024/03/04 10:09:12;;;;;;;7.20;5.35;;;;;;;;;;4924450;29;20039;-96
2024/03/04 10:11:42;;;;;;;10.57;9.75;;;;;;;;;;4927197;29;20032;-91
2024/03/04 10:14:11;;;;;;;13.23;11.88;;;;;;;;;;4926794;29;20038;-95
2024/03/04 10:16:41;;;;;;;14.07;12.90;;;;;;;;;;4927951;29;20023;-93
2024/03/04 10:19:11;;;;;;;12.10;11.00;;;;;;;;;;4928285;29;20445;-95
2024/03/04 10:21:40;;;;;;;10.85;9.88;;;;;;;;;;4931213;29;20042;-94
2024/03/04 10:24:10;;;;;;;11.73;10.82;;;;;;;;;;4926535;29;20040;-95
2024/03/04 10:26:44;;;;;;;8.07;6.88;;;;;;;;;;4925930;29;20478;-95
2024/03/04 10:29:12;;;;;;;8.32;7.53;;;;;;;;;;4928770;29;20040;-93
2024/03/04 10:31:48;;;;;;;13.23;10.35;;;;;;;;;;4926534;29;20039;-95
2024/03/04 10:34:15;;;;;;;8.75;7.95;;;;;;;;;;4925277;29;20043;-94
2024/03/04 10:36:41;;;;;;;9.52;8.68;;;;;;;;;;4926090;29;20433;-93
2024/03/04 10:39:15;;;;;;;8.05;7.25;;;;;;;;;;4927806;29;20039;-96
2024/03/04 10:41:45;;;;;;;7.85;5.80;;;;;;;;;;4927107;29;20031;-93
2024/03/04 10:44:23;;;;;;;7.68;6.97;;;;;;;;;;4928350;29;20031;-95
2024/03/04 10:46:49;;;;;;;7.78;6.82;;;;;;;;;;4930013;29;20397;-93
2024/03/04 10:49:15;;;;;;;9.70;7.60;;;;;;;;;;4926584;29;20476;-92
2024/03/04 10:51:42;;;;;;;8.82;6.65;;;;;;;;;;4935614;28;20012;-92
2024/03/04 10:54:13;;;;;;;9.02;8.23;;;;;;;;;;4940887;29;20087;-93
2024/03/04 10:56:48;;;;;;;12.40;11.20;;;;;;;;;;4944878;29;20047;-96
2024/03/04 10:59:17;;;;;;;12.25;11.00;;;;;;;;;;4946904;29;20027;-93
2024/03/04 11:01:46;;;;;;;10.60;9.57;;;;;;;;;;4945744;29;20023;-94
2024/03/04 11:04:16;;;;;;;7.97;6.90;;;;;;;;;;4946130;29;20023;-94
2024/03/04 11:06:51;;;;;;;8.13;5.95;;;;;;;;;;4929599;29;20038;-93
2024/03/04 11:09:23;;;;;;;10.57;9.70;;;;;;;;;;4933484;29;20134;-93
2024/03/04 11:12:10;;;;;;;11.70;10.55;;;;;;;;;;4939552;29;20032;-93
2024/03/04 11:14:42;;;;;;;9.07;8.18;;;;;;;;;;4950287;29;20039;-93
2024/03/04 11:17:20;;;;;;;13.13;12.05;;;;;;;;;;4967951;29;20039;-94
2024/03/04 11:19:55;;;;;;;12.10;9.13;;;;;;;;;;4963125;28;20095;-92
2024/03/04 11:22:30;;;;;;;12.48;11.52;;;;;;;;;;4974004;28;20051;-93
2024/03/04 11:24:56;;;;;;;;;;;;;;;;;;4904719;29;20036;-92
2024/03/04 11:27:25;;;;;;;14.25;13.23;;;;;;;;;;4926512;29;19950;-91
2024/03/04 11:29:58;;;;;;;13.20;12.10;;;;;;;;;;4926272;29;20043;-94
2024/03/04 11:32:29;;;;;;;19.73;18.27;;;;;;;;;;4939046;29;20027;-93
2024/03/04 11:35:22;;;;;;;11.60;9.93;;;;;;;;;;4949448;29;20047;-92
2024/03/04 11:37:55;;;;;;;15.65;14.52;;;;;;;;;;4943384;29;20086;-94
2024/03/04 11:40:24;;;;;;;13.88;12.85;;;;;;;;;;4944932;29;20057;-92
2024/03/04 11:45:43;;;;;;;13.27;12.13;;;;;;;;;;4947689;29;20036;-94
2024/03/04 11:48:31;;;;;;;14.48;13.15;;;;;;;;;;4933708;29;20031;-92
2024/03/04 11:50:57;;;;;;;14.50;11.13;;;;;;;;;;4943137;29;20050;-91
2024/03/04 11:53:30;;;;;;;17.67;16.48;;;;;;;;;;4943938;29;20032;-91
2024/03/04 11:55:59;;;;;;;15.18;14.02;;;;;;;;;;4944200;29;20055;-92
2024/03/04 11:58:39;;;;;;;12.73;11.63;;;;;;;;;;4943272;29;20098;-91
2024/03/04 12:01:13;;;;;;;11.30;10.20;;;;;;;;;;4925676;29;20042;-93
2024/03/04 12:03:58;;;;;;;11.18;10.20;;;;;;;;;;4932640;29;20032;-92
2024/03/04 12:06:30;;;;;;;10.68;9.68;;;;;;;;;;4941471;29;20058;-92
2024/03/04 12:09:06;;;;;;;13.20;12.20;;;;;;;;;;4924491;29;20519;-92
2024/03/04 12:11:55;;;;;;;11.45;10.43;;;;;;;;;;4943672;29;20035;-91
2024/03/04 12:14:24;;;;;;;9.50;8.60;;;;;;;;;;4887717;29;20494;-93
2024/03/04 12:17:11;;;;;;;9.27;8.15;;;;;;;;;;4884655;29;20108;-92
2024/03/04 12:19:37;;;;;;;9.05;6.97;;;;;;;;;;4917995;29;20091;-94
2024/03/04 12:22:10;;;;;;;8.93;7.80;;;;;;;;;;4941746;29;20035;-94
2024/03/04 12:24:42;;;;;;;7.43;6.65;;;;;;;;;;4919490;29;20055;-94
2024/03/04 12:27:10;;;;;;;8.93;6.18;;;;;;;;;;4929768;29;20032;-92
2024/03/04 12:29:40;;;;;;;8.13;7.10;;;;;;;;;;4957860;29;20039;-94
2024/03/04 12:32:17;;;;;;;6.95;6.25;;;;;;;;;;4951007;29;20036;-93
2024/03/04 12:34:50;;;;;;;6.82;6.15;;;;;;;;;;4944082;29;20091;-92
2024/03/04 12:37:30;;;;;;;8.07;6.82;;;;;;;;;;4924927;29;20027;-93
2024/03/04 12:39:56;;;;;;;8.68;7.82;;;;;;;;;;4910046;29;20194;-92
2024/03/04 12:42:32;;;;;;;8.15;7.32;;;;;;;;;;4940677;29;20047;-94
2024/03/04 12:45:07;;;;;;;7.47;6.72;;;;;;;;;;4924809;29;20111;-94
2024/03/04 12:47:34;;;;;;;7.72;6.57;;;;;;;;;;4910606;29;20527;-92
2024/03/04 12:50:12;;;;;;;6.65;6.05;;;;;;;;;;4946132;29;20492;-95
2024/03/04 12:52:52;;;;;;;7.32;5.47;;;;;;;;;;4929300;29;20122;-96
2024/03/04 12:55:40;;;;;;;7.03;5.22;;;;;;;;;;4943364;29;20560;-93
2024/03/04 12:58:07;;;;;;;9.13;7.15;;;;;;;;;;4931134;29;20032;-95
2024/03/04 13:00:39;;;;;;;7.55;6.68;;;;;;;;;;4941895;28;20015;-92
2024/03/04 13:03:05;;;;;;;5.35;4.85;;;;;;;;;;4928697;29;20060;-92
2024/03/04 13:05:32;;;;;;;8.32;5.15;;;;;;;;;;4928911;29;20058;-95
2024/03/04 13:07:59;;;;;;;8.52;7.50;;;;;;;;;;4931198;29;20536;-94
2024/03/04 13:10:29;;;;;;;8.05;6.10;;;;;;;;;;4913361;29;20044;-92
2024/03/04 13:13:02;;;;;;;8.25;6.25;;;;;;;;;;4926260;29;20386;-94
2024/03/04 13:15:31;;;;;;;10.57;9.73;;;;;;;;;;4928372;29;20044;-93
2024/03/04 13:18:00;;;;;;;8.70;7.90;;;;;;;;;;4909497;29;20028;-95
2024/03/04 13:20:33;;;;;;;18.85;16.90;;;;;;;;;;4910438;29;20115;-94
2024/03/04 13:23:08;;;;;;;9.82;7.85;;;;;;;;;;4925270;29;20497;-92
2024/03/04 13:25:44;;;;;;;7.40;6.63;;;;;;;;;;4926124;29;20032;-92
2024/03/04 13:28:13;;;;;;;10.43;8.43;;;;;;;;;;4908039;29;20063;-92
2024/03/04 13:31:07;;;;;;;8.65;7.00;;;;;;;;;;4914769;29;20044;-95
2024/03/04 13:34:00;;;;;;;11.38;7.55;;;;;;;;;;4930594;29;20132;-93
2024/03/04 13:36:27;;;;;;;9.38;8.50;;;;;;;;;;4938209;29;20032;-93
2024/03/04 13:39:03;;;;;;;8.25;7.13;;;;;;;;;;4942140;29;20031;-94
2024/03/04 13:41:30;;;;;;;10.73;9.60;;;;;;;;;;4943788;29;20031;-94
2024/03/04 13:43:56;;;;;;;11.80;10.52;;;;;;;;;;4944240;29;20051;-93
2024/03/04 13:46:28;;;;;;;10.13;6.28;;;;;;;;;;4943897;29;20031;-92
2024/03/04 13:49:01;;;;;;;23.20;20.80;;;;;;;;;;4916429;29;20120;-93
2024/03/04 13:51:27;;;;;;;21.15;19.23;;;;;;;;;;4922663;29;20034;-95
2024/03/04 13:53:58;;;;;;;10.35;8.60;;;;;;;;;;4944302;29;20111;-95
2024/03/04 13:56:26;;;;;;;12.60;8.25;;;;;;;;;;4928276;29;20051;-93
2024/03/04 13:58:59;;;;;;;9.65;7.47;;;;;;;;;;4945131;29;20043;-94
2024/03/04 14:01:28;;;;;;;10.23;9.40;;;;;;;;;;4938664;29;20050;-94
2024/03/04 14:04:04;;;;;;;8.50;7.60;;;;;;;;;;4950834;29;20031;-92
2024/03/04 14:06:31;;;;;;;12.13;11.00;;;;;;;;;;4961590;29;20098;-92
2024/03/04 14:09:23;;;;;;;12.27;9.25;;;;;;;;;;4951441;29;20047;-94
2024/03/04 14:12:01;;;;;;;15.60;14.40;;;;;;;;;;4940890;29;20039;-91
2024/03/04 14:14:46;;;;;;;10.45;9.38;;;;;;;;;;4945593;29;20044;-91
2024/03/04 14:17:40;;;;;;;14.48;13.13;;;;;;;;;;4943375;29;20039;-94
2024/03/04 14:20:14;;;;;;;10.55;9.32;;;;;;;;;;4943288;29;20454;-94
2024/03/04 14:22:43;;;;;;;9.65;8.73;;;;;;;;;;4941147;29;20549;-95
2024/03/04 14:25:12;;;;;;;10.10;9.25;;;;;;;;;;4942385;29;20050;-92
2024/03/04 14:27:43;;;;;;;11.73;9.65;;;;;;;;;;4944877;29;20039;-96
2024/03/04 14:30:13;;;;;;;11.23;10.43;;;;;;;;;;4915228;29;20139;-95
2024/03/04 14:32:41;;;;;;;11.35;9.00;;;;;;;;;;4908872;29;20028;-92
2024/03/04 14:35:11;;;;;;;11.00;9.98;;;;;;;;;;4923310;29;20063;-94
2024/03/04 14:37:44;;;;;;;10.57;9.68;;;;;;;;;;4926068;29;20040;-93
2024/03/04 14:40:11;;;;;;;9.68;8.15;;;;;;;;;;4925584;29;20131;-94
2024/03/04 14:42:37;;;;;;;10.73;7.10;;;;;;;;;;4939088;29;20040;-93
2024/03/04 14:45:10;;;;;;;9.70;8.75;;;;;;;;;;4925657;29;20020;-91